createdAt,value
2022-12-14T00:04:30.676Z,2.72
2022-12-14T00:09:27.876Z,2.49
2022-12-14T00:14:25.289Z,2.77
2022-12-14T00:19:23.638Z,2.48
2022-12-14T00:24:21.310Z,2.37
2022-12-14T00:29:18.490Z,2.31
2022-12-14T00:34:15.644Z,2.46
2022-12-14T00:39:14.856Z,2.56
2022-12-14T00:44:15.590Z,2.62
2022-12-14T00:49:12.616Z,2.56
2022-12-14T00:54:12.608Z,2.50
2022-12-14T00:59:09.530Z,2.26
2022-12-14T01:04:18.955Z,2.12
2022-12-14T01:09:17.493Z,1.81
2022-12-14T01:14:16.676Z,1.49
2022-12-14T01:19:15.171Z,1.06
2022-12-14T01:24:12.133Z,1.12
2022-12-14T01:29:11.557Z,1.14
2022-12-14T01:34:09.335Z,1.31
2022-12-14T01:39:09.372Z,1.48
2022-12-14T01:44:39.687Z,1.47
2022-12-14T01:49:42.679Z,1.66
2022-12-14T01:54:48.787Z,1.34
2022-12-14T01:59:46.946Z,1.69
2022-12-14T02:04:51.837Z,1.05
2022-12-14T02:09:50.995Z,1.72
2022-12-14T02:14:48.975Z,1.83
2022-12-14T02:19:48.832Z,1.81
2022-12-14T02:25:16.717Z,1.89
2022-12-14T02:30:17.539Z,1.38
2022-12-14T02:35:23.187Z,1.13
2022-12-14T02:40:28.328Z,0.93
2022-12-14T02:45:35.928Z,0.31
2022-12-14T02:50:41.350Z,0.23
2022-12-14T02:55:42.581Z,-0.10
2022-12-14T03:00:41.542Z,-0.07
2022-12-14T03:05:38.407Z,0.64
2022-12-14T03:10:39.548Z,0.79
2022-12-14T03:15:41.517Z,0.52
2022-12-14T03:20:44.179Z,0.21
2022-12-14T03:25:44.308Z,1.01
2022-12-14T03:31:00.038Z,0.97
2022-12-14T03:36:03.658Z,0.69
2022-12-14T03:41:11.619Z,0.81
2022-12-14T03:46:14.712Z,0.62
2022-12-14T03:51:21.377Z,0.22
2022-12-14T03:56:24.089Z,0.27
2022-12-14T04:01:32.252Z,0.01
2022-12-14T04:06:36.229Z,0.05
2022-12-14T04:11:58.478Z,0.14
2022-12-14T04:17:18.747Z,0.32
2022-12-14T04:22:21.421Z,0.30
2022-12-14T04:27:23.807Z,0.13
2022-12-14T04:32:28.489Z,0.43
2022-12-14T04:37:27.737Z,0.38
2022-12-14T04:42:33.022Z,0.36
2022-12-14T04:47:35.434Z,-0.24
2022-12-14T04:52:38.785Z,0.19
2022-12-14T04:57:41.597Z,0.04
2022-12-14T05:02:56.954Z,0.15
2022-12-14T05:08:00.210Z,0.05
2022-12-14T05:13:04.534Z,0.15
2022-12-14T05:18:04.393Z,0.19
2022-12-14T05:23:04.218Z,-0.05
2022-12-14T05:28:01.173Z,-0.22
2022-12-14T05:32:58.108Z,-0.31
2022-12-14T05:37:55.931Z,-0.03
2022-12-14T05:43:02.923Z,-0.51
2022-12-14T05:47:59.834Z,0.08
2022-12-14T05:53:07.696Z,-0.02
2022-12-14T05:58:04.611Z,0.15
2022-12-14T06:03:01.487Z,0.16
2022-12-14T06:08:02.167Z,0.02
2022-12-14T06:12:59.139Z,-0.06
2022-12-14T06:18:01.479Z,0.05
2022-12-14T06:22:59.183Z,0.51
2022-12-14T06:27:56.059Z,0.44
2022-12-14T06:32:52.852Z,0.33
2022-12-14T06:37:49.964Z,0.37
2022-12-14T06:42:48.353Z,0.32
2022-12-14T06:47:45.318Z,0.19
2022-12-14T06:52:44.881Z,0.29
2022-12-14T06:57:44.776Z,0.25
2022-12-14T07:02:42.535Z,0.76
2022-12-14T07:07:40.443Z,0.60
2022-12-14T07:12:37.308Z,0.54
2022-12-14T07:17:36.410Z,1.06
2022-12-14T07:22:34.920Z,1.11
2022-12-14T07:27:32.386Z,1.19
2022-12-14T07:32:29.501Z,1.48
2022-12-14T07:37:26.707Z,1.59
2022-12-14T07:42:24.290Z,1.86
2022-12-14T07:47:21.267Z,1.85
2022-12-14T07:52:18.368Z,2.01
2022-12-14T07:57:18.115Z,1.87
2022-12-14T08:02:16.158Z,2.31
2022-12-14T08:07:36.514Z,2.16
2022-12-14T08:12:34.019Z,2.02
2022-12-14T08:17:32.954Z,2.40
2022-12-14T08:22:32.766Z,2.64
2022-12-14T08:27:30.362Z,2.37
2022-12-14T08:32:33.941Z,2.06
2022-12-14T08:37:32.542Z,1.68
2022-12-14T08:42:32.714Z,2.29
2022-12-14T08:47:31.908Z,1.74
2022-12-14T08:52:38.962Z,2.00
2022-12-14T08:57:43.442Z,2.32
2022-12-14T09:02:43.188Z,2.86
2022-12-14T09:07:43.499Z,2.61
2022-12-14T09:12:42.566Z,3.10
2022-12-14T09:17:44.920Z,3.05
2022-12-14T09:22:46.242Z,2.62
2022-12-14T09:28:07.171Z,3.01
2022-12-14T09:33:10.871Z,3.05
2022-12-14T09:38:08.829Z,3.35
2022-12-14T09:43:18.550Z,2.66
2022-12-14T09:48:26.892Z,2.92
2022-12-14T09:53:26.074Z,3.36
2022-12-14T09:58:27.428Z,3.17
2022-12-14T10:03:51.796Z,3.33
2022-12-14T10:08:58.655Z,3.30
2022-12-14T10:14:08.917Z,3.39
2022-12-14T10:19:20.619Z,3.31
2022-12-14T10:24:24.061Z,3.74
2022-12-14T10:29:34.897Z,3.54
2022-12-14T10:34:34.118Z,4.23
2022-12-14T10:39:43.929Z,4.34
2022-12-14T10:45:09.746Z,4.10
2022-12-14T10:50:20.121Z,4.50
2022-12-14T10:55:21.641Z,4.54
2022-12-14T11:00:26.106Z,4.54
2022-12-14T11:05:36.450Z,4.81
2022-12-14T11:10:36.368Z,4.66
2022-12-14T11:15:36.614Z,4.68
2022-12-14T11:20:33.884Z,4.92
2022-12-14T11:25:50.606Z,5.13
2022-12-14T11:30:57.388Z,5.54
2022-12-14T11:35:54.791Z,5.17
2022-12-14T11:40:52.422Z,5.40
2022-12-14T11:45:51.084Z,5.74
2022-12-14T11:50:49.781Z,5.49
2022-12-14T11:55:53.477Z,5.58
2022-12-14T12:00:55.251Z,5.65
2022-12-14T12:05:53.926Z,5.51
2022-12-14T12:10:53.168Z,5.53
2022-12-14T12:15:53.588Z,5.27
2022-12-14T12:20:57.970Z,5.63
2022-12-14T12:25:57.014Z,5.68
2022-12-14T12:30:59.419Z,5.49
2022-12-14T12:36:02.045Z,5.67
2022-12-14T12:41:06.127Z,5.69
2022-12-14T12:46:11.523Z,5.63
2022-12-14T12:51:14.564Z,5.66
2022-12-14T12:56:16.571Z,5.46
2022-12-14T13:01:24.032Z,5.18
2022-12-14T13:06:24.636Z,5.05
2022-12-14T13:11:27.003Z,5.58
2022-12-14T13:16:32.188Z,5.29
2022-12-14T13:21:32.533Z,5.63
2022-12-14T13:26:57.670Z,5.67
2022-12-14T13:32:04.147Z,5.49
2022-12-14T13:37:17.643Z,5.64
2022-12-14T13:42:24.613Z,5.43
2022-12-14T13:47:28.684Z,5.46
2022-12-14T13:52:38.029Z,5.58
2022-12-14T13:57:50.602Z,5.38
2022-12-14T14:02:52.982Z,5.83
2022-12-14T14:07:52.819Z,5.91
2022-12-14T14:12:49.738Z,5.58
2022-12-14T14:17:49.251Z,5.68
2022-12-14T14:23:40.941Z,5.57
2022-12-14T14:28:38.582Z,5.16
2022-12-14T14:33:46.543Z,5.33
2022-12-14T14:38:45.560Z,5.32
2022-12-14T14:43:50.152Z,5.40
2022-12-14T14:48:52.688Z,5.30
2022-12-14T14:55:10.786Z,5.32
2022-12-14T14:59:51.186Z,5.19
2022-12-14T15:04:51.613Z,5.20
2022-12-14T15:09:57.524Z,5.01
2022-12-14T15:14:59.872Z,5.08
2022-12-14T15:19:58.051Z,5.04
2022-12-14T15:24:58.602Z,4.92
2022-12-14T15:30:01.355Z,4.68
2022-12-14T15:35:01.603Z,4.82
2022-12-14T15:40:06.159Z,4.71
2022-12-14T15:45:13.352Z,4.96
2022-12-14T15:50:16.396Z,4.86
2022-12-14T15:55:25.999Z,4.78
2022-12-14T16:00:22.851Z,5.12
2022-12-14T16:05:23.038Z,5.05
2022-12-14T16:10:24.753Z,5.07
2022-12-14T16:15:27.211Z,5.19
2022-12-14T16:20:26.711Z,5.23
2022-12-14T16:25:24.346Z,5.23
2022-12-14T16:30:30.788Z,5.11
2022-12-14T16:35:28.069Z,5.26
2022-12-14T16:40:31.924Z,5.09
2022-12-14T16:46:01.187Z,5.37
2022-12-14T16:51:18.619Z,5.13
2022-12-14T16:56:22.292Z,5.39
2022-12-14T17:01:20.336Z,5.46
2022-12-14T17:06:22.863Z,5.65
2022-12-14T17:11:20.820Z,5.61
2022-12-14T17:16:24.390Z,5.41
2022-12-14T17:21:26.764Z,5.29
2022-12-14T17:26:26.837Z,5.28
2022-12-14T17:31:27.340Z,5.48
2022-12-14T17:36:25.427Z,5.39
2022-12-14T17:41:25.963Z,5.68
2022-12-14T17:46:23.080Z,5.83
2022-12-14T17:51:24.707Z,5.94
2022-12-14T17:56:21.991Z,6.12
2022-12-14T18:01:22.550Z,6.20
2022-12-14T18:06:19.889Z,5.98
2022-12-14T18:11:20.066Z,6.03
2022-12-14T18:16:19.887Z,6.01
2022-12-14T18:21:20.556Z,5.90
2022-12-14T18:26:20.426Z,6.22
2022-12-14T18:31:23.917Z,6.17
2022-12-14T18:36:22.145Z,6.31
2022-12-14T18:41:21.469Z,6.24
2022-12-14T18:46:18.642Z,6.08
2022-12-14T18:51:22.605Z,5.79
2022-12-14T18:56:21.769Z,5.77
2022-12-14T19:01:20.971Z,5.91
2022-12-14T19:06:43.597Z,5.91
2022-12-14T19:11:41.105Z,6.26
2022-12-14T19:16:38.952Z,6.37
2022-12-14T19:21:36.009Z,6.32
2022-12-14T19:26:33.045Z,6.25
2022-12-14T19:31:30.764Z,5.88
2022-12-14T19:36:29.181Z,6.36
2022-12-14T19:41:30.781Z,5.84
2022-12-14T19:46:28.049Z,6.09
2022-12-14T19:51:25.925Z,6.52
2022-12-14T19:56:25.846Z,6.54
2022-12-14T20:01:23.804Z,6.34
2022-12-14T20:06:20.939Z,6.95
2022-12-14T20:11:21.098Z,7.02
2022-12-14T20:16:19.231Z,7.05
2022-12-14T20:21:22.417Z,6.81
2022-12-14T20:26:22.109Z,6.96
2022-12-14T20:31:20.227Z,7.24
2022-12-14T20:36:18.434Z,7.30
2022-12-14T20:41:16.606Z,7.43
2022-12-14T20:46:27.483Z,7.40
2022-12-14T20:51:24.544Z,7.46
2022-12-14T20:56:21.566Z,6.94
2022-12-14T21:01:20.231Z,7.45
2022-12-14T21:06:20.601Z,7.20
2022-12-14T21:11:37.354Z,7.19
2022-12-14T21:16:34.534Z,6.37
2022-12-14T21:21:32.216Z,6.29
2022-12-14T21:26:29.198Z,6.22
2022-12-14T21:31:26.147Z,6.00
2022-12-14T21:36:22.988Z,6.13
2022-12-14T21:41:38.552Z,6.05
2022-12-14T21:46:36.368Z,5.58
2022-12-14T21:51:33.774Z,6.01
2022-12-14T21:56:50.923Z,6.11
2022-12-14T22:01:48.476Z,6.13
2022-12-14T22:06:45.827Z,6.19
2022-12-14T22:11:43.503Z,5.93
2022-12-14T22:16:44.259Z,5.90
2022-12-14T22:21:41.651Z,6.19
2022-12-14T22:26:39.461Z,5.95
2022-12-14T22:31:41.335Z,6.13
2022-12-14T22:36:38.321Z,5.49
2022-12-14T22:41:36.217Z,6.07
2022-12-14T22:46:33.564Z,6.15
2022-12-14T22:51:31.236Z,6.17
2022-12-14T22:56:32.396Z,5.84
2022-12-14T23:01:30.502Z,6.18
2022-12-14T23:06:28.205Z,5.95
2022-12-14T23:11:43.546Z,6.19
2022-12-14T23:16:58.503Z,6.05
2022-12-14T23:22:13.162Z,6.09
2022-12-14T23:27:28.951Z,6.11
2022-12-14T23:32:43.543Z,5.97
2022-12-14T23:37:58.023Z,5.90
2022-12-14T23:43:13.582Z,5.94
2022-12-14T23:48:28.953Z,5.87
2022-12-14T23:53:44.152Z,5.77
2022-12-14T23:59:08.176Z,6.03
